Aviation Digital Data Service (ADDS)

Output produced by METARs form (0425 UTC 01 March 2015)
found at http://aviationweather.gov/adds/metars/
 
KMIV 282340Z 0100/0124 VRB02KT P6SM BKN250 
     FM011000 00000KT P6SM OVC120 
     FM011600 16003KT P6SM OVC050 
     TEMPO 0117/0118 6SM -SN OVC035 
     FM011900 16006KT 3SM -FZRA BR OVC005